LFPG/CDG METAR and TAF weather

Enter ICAO airport designator
Station Type Date Time Source
LFPG METAR 2019/05/26 23:30 UTC NOAA

LFPG 262330Z 27008KT 9999 BKN020 SCT033 BKN056 16/11 Q1014 NOSIG


Station Type Date Time Source
LFPG Decoded METAR 2019/05/26 23:30 UTC NOAA

Paris-Aeroport Charles De Gaulle, France (LFPG) 49-01N 002-32E 109M
May 26, 2019 - 07:30 PM EDT / 2019.05.26 2330 UTC
Wind: from the W (270 degrees) at 9 MPH (8 KT):0
Visibility: greater than 7 mile(s):0
Sky conditions: mostly cloudy
Temperature: 60 F (16 C)
Dew Point: 51 F (11 C)
Relative Humidity: 72%
Pressure (altimeter): 29.94 in. Hg (1014 hPa)
ob: LFPG 262330Z 27008KT 9999 BKN020 SCT033 BKN056 16/11 Q1014 NOSIG
cycle: 23

Station Type Date Time Source
LFPG TAF 2019/05/26 18:21 UTC NOAA

TAF LFPG 261700Z 2618/2724 27008KT 9999 BKN030 TX21/2715Z TN14/2705Z
BECMG 2623/2701 BKN012 PROB40
TEMPO 2701/2705 4000 RA BKN008
BECMG 2707/2709 BKN020
BECMG 2714/2716 CAVOK

Example: see airport list